Time;durP1;ratioP1;P1;durP2;ratioP2;P2;SDS_P1;SDS_P2;PMS_P1;PMS_P2;Temp;Humidity;BMP_temperature;BMP_pressure;BME280_temperature;BME280_humidity;BME280_pressure;Samples;Min_cycle;Max_cycle;Signal;HPM_P1;HPM_P2
2022/09/08 00:01:45;;;;;;;0.40;0.40;;;17.00;99.90;;;;;;5057532;28;20515;-82
2022/09/08 00:04:10;;;;;;;0.40;0.40;;;16.90;99.90;;;;;;5078687;28;20043;-82
2022/09/08 00:06:36;;;;;;;0.40;0.40;;;17.00;99.90;;;;;;5079565;28;20043;-81
2022/09/08 00:09:04;;;;;;;0.40;0.40;;;16.90;99.90;;;;;;5077536;28;20035;-81
2022/09/08 00:11:32;;;;;;;0.40;0.40;;;17.00;99.90;;;;;;5076998;28;20113;-81
2022/09/08 00:14:01;;;;;;;0.40;0.40;;;17.00;99.90;;;;;;5076589;28;20082;-80
2022/09/08 00:16:27;;;;;;;0.40;0.40;;;17.00;99.90;;;;;;5079069;28;20060;-81
2022/09/08 00:18:53;;;;;;;0.40;0.40;;;17.00;99.90;;;;;;5078323;28;20144;-81
2022/09/08 00:21:25;;;;;;;0.40;0.40;;;17.00;99.90;;;;;;5079460;28;20127;-81
2022/09/08 00:23:51;;;;;;;0.40;0.40;;;17.00;99.90;;;;;;5079151;28;20553;-81
2022/09/08 00:26:18;;;;;;;0.40;0.40;;;16.80;99.90;;;;;;5079013;28;20051;-81
2022/09/08 00:28:44;;;;;;;0.40;0.40;;;16.80;99.90;;;;;;5077456;28;20040;-81
2022/09/08 00:31:10;;;;;;;0.40;0.40;;;16.80;99.90;;;;;;5078366;28;20130;-81
2022/09/08 00:33:36;;;;;;;0.40;0.40;;;16.80;99.90;;;;;;5074865;28;20332;-81
2022/09/08 00:36:03;;;;;;;0.40;0.40;;;16.90;99.90;;;;;;5076849;28;20502;-81
2022/09/08 00:38:31;;;;;;;0.43;0.43;;;16.90;99.90;;;;;;5079048;28;20082;-81
2022/09/08 00:40:57;;;;;;;0.40;0.40;;;16.80;99.90;;;;;;5078860;28;20128;-81
2022/09/08 00:43:36;;;;;;;0.40;0.40;;;16.80;99.90;;;;;;5080123;28;20062;-81
2022/09/08 00:46:18;;;;;;;0.40;0.40;;;16.80;99.90;;;;;;5078160;28;20489;-81
2022/09/08 00:49:03;;;;;;;0.40;0.40;;;16.80;99.90;;;;;;5079384;28;20230;-81
2022/09/08 00:51:29;;;;;;;;;;;16.90;99.90;;;;;;5077330;28;20098;-81
2022/09/08 00:53:58;;;;;;;0.40;0.40;;;16.80;99.90;;;;;;5076513;28;20080;-81
2022/09/08 00:56:26;;;;;;;0.40;0.40;;;16.70;99.90;;;;;;5077842;28;20050;-81
2022/09/08 00:58:53;;;;;;;0.40;0.40;;;16.80;99.90;;;;;;5078178;28;20052;-81
2022/09/08 01:01:19;;;;;;;0.40;0.40;;;16.60;99.90;;;;;;5072042;28;20075;-81
2022/09/08 01:03:45;;;;;;;0.40;0.40;;;16.70;99.90;;;;;;5078624;28;20716;-81
2022/09/08 01:12:44;;;;;;;0.40;0.40;;;16.80;99.90;;;;;;5078286;28;20052;-81
2022/09/08 01:15:15;;;;;;;0.40;0.40;;;16.80;99.90;;;;;;5075249;28;20047;-81
2022/09/08 01:17:41;;;;;;;0.40;0.40;;;16.80;99.90;;;;;;5083174;28;20122;-81
2022/09/08 01:20:08;;;;;;;0.40;0.40;;;16.80;99.90;;;;;;5079186;28;20308;-81
2022/09/08 01:23:15;;;;;;;0.50;0.50;;;16.80;99.90;;;;;;5080235;28;20055;-81
2022/09/08 01:26:02;;;;;;;0.40;0.40;;;16.90;99.90;;;;;;5021529;28;20053;-81
2022/09/08 01:28:41;;;;;;;0.40;0.40;;;16.90;99.90;;;;;;5078670;28;20482;-81
2022/09/08 01:31:07;;;;;;;0.40;0.40;;;16.80;99.90;;;;;;5077062;28;20049;-81
2022/09/08 01:33:33;;;;;;;0.40;0.40;;;16.90;99.90;;;;;;5074499;28;20055;-81
2022/09/08 01:35:59;;;;;;;0.40;0.40;;;16.90;99.90;;;;;;5074989;28;20101;-81
2022/09/08 01:38:25;;;;;;;0.40;0.40;;;16.90;99.90;;;;;;5062716;28;20056;-81
2022/09/08 01:40:51;;;;;;;0.43;0.43;;;16.90;99.90;;;;;;5042903;28;20096;-81
2022/09/08 01:43:17;;;;;;;0.40;0.40;;;16.90;99.90;;;;;;5046148;28;20062;-81
2022/09/08 01:45:42;;;;;;;0.40;0.40;;;16.90;99.90;;;;;;5026930;28;20060;-81
2022/09/08 01:48:09;;;;;;;0.40;0.40;;;16.90;99.90;;;;;;5029827;28;20052;-82
2022/09/08 01:50:35;;;;;;;0.40;0.40;;;16.90;99.90;;;;;;5040148;28;20790;-81
2022/09/08 01:53:01;;;;;;;0.40;0.40;;;17.00;99.90;;;;;;5046446;28;20143;-81
2022/09/08 01:55:27;;;;;;;0.40;0.40;;;16.90;99.90;;;;;;5043363;28;20076;-81
2022/09/08 01:57:52;;;;;;;0.40;0.40;;;16.90;99.90;;;;;;5045358;28;20135;-81
2022/09/08 02:00:18;;;;;;;0.40;0.40;;;17.00;99.90;;;;;;5044943;28;20123;-81
2022/09/08 02:02:44;;;;;;;0.40;0.40;;;17.00;99.90;;;;;;5043184;28;20853;-81
2022/09/08 02:05:10;;;;;;;0.40;0.40;;;17.10;99.90;;;;;;5044719;28;20040;-81
2022/09/08 02:07:37;;;;;;;0.40;0.40;;;17.00;99.90;;;;;;5043459;28;20049;-81
2022/09/08 02:10:04;;;;;;;0.40;0.40;;;17.20;99.90;;;;;;5045628;28;20048;-81
2022/09/08 02:12:30;;;;;;;0.40;0.40;;;17.20;99.90;;;;;;5049604;28;20762;-82
2022/09/08 02:14:57;;;;;;;0.40;0.40;;;17.40;99.90;;;;;;5033923;28;20056;-82
2022/09/08 02:17:22;;;;;;;0.40;0.40;;;17.40;99.90;;;;;;5051322;28;20048;-81
2022/09/08 02:19:48;;;;;;;0.40;0.40;;;17.50;99.90;;;;;;5047561;28;20064;-80
2022/09/08 02:22:15;;;;;;;0.40;0.40;;;17.50;99.90;;;;;;5048941;28;20086;-81
2022/09/08 02:24:41;;;;;;;0.40;0.40;;;17.50;99.90;;;;;;5047188;28;20442;-81
2022/09/08 02:27:08;;;;;;;0.40;0.40;;;17.50;99.90;;;;;;5045670;28;20041;-81
2022/09/08 02:29:33;;;;;;;0.40;0.40;;;17.60;99.90;;;;;;5048672;28;20090;-81
2022/09/08 02:31:59;;;;;;;0.40;0.40;;;17.70;99.90;;;;;;5032791;28;20055;-81
2022/09/08 02:34:25;;;;;;;0.40;0.40;;;17.70;99.90;;;;;;5049074;28;20704;-81
2022/09/08 02:36:51;;;;;;;0.43;0.43;;;17.70;99.90;;;;;;5049596;28;20048;-81
2022/09/08 02:39:18;;;;;;;0.40;0.40;;;17.60;99.90;;;;;;5072114;28;20603;-81
2022/09/08 02:41:44;;;;;;;0.40;0.40;;;17.70;99.90;;;;;;5082743;28;20047;-81
2022/09/08 02:44:11;;;;;;;0.40;0.40;;;17.70;99.90;;;;;;5081350;28;20793;-81
2022/09/08 02:46:41;;;;;;;0.55;0.55;;;17.60;99.90;;;;;;5062967;28;20035;-81
2022/09/08 02:49:10;;;;;;;0.40;0.40;;;17.60;99.90;;;;;;5082050;28;20050;-81
2022/09/08 02:51:36;;;;;;;0.32;0.32;;;17.50;99.90;;;;;;5043942;28;20064;-81
2022/09/08 02:54:02;;;;;;;0.40;0.40;;;17.50;99.90;;;;;;5066206;28;20048;-80
2022/09/08 02:56:28;;;;;;;0.50;0.50;;;17.50;99.90;;;;;;5062627;28;20063;-81
2022/09/08 02:58:54;;;;;;;0.40;0.40;;;17.60;99.90;;;;;;5062214;28;20071;-81
2022/09/08 03:01:21;;;;;;;0.40;0.40;;;17.60;99.90;;;;;;5064053;28;20127;-81
2022/09/08 03:03:47;;;;;;;0.40;0.40;;;17.50;99.90;;;;;;5083686;28;20054;-81
2022/09/08 03:06:14;;;;;;;0.40;0.40;;;17.50;99.90;;;;;;5066743;28;20063;-81
2022/09/08 03:08:40;;;;;;;0.40;0.40;;;17.50;99.90;;;;;;5065784;28;20269;-81
2022/09/08 03:11:06;;;;;;;0.40;0.40;;;17.40;99.90;;;;;;5048756;28;20535;-81
2022/09/08 03:13:32;;;;;;;0.40;0.40;;;17.50;99.90;;;;;;5050720;28;20051;-82
2022/09/08 03:15:57;;;;;;;0.40;0.40;;;17.40;99.90;;;;;;5065394;28;20139;-81
2022/09/08 03:18:24;;;;;;;0.40;0.40;;;17.40;99.90;;;;;;5063967;28;20102;-81
2022/09/08 03:21:00;;;;;;;0.40;0.40;;;17.40;99.90;;;;;;5050982;28;20058;-82
2022/09/08 03:23:26;;;;;;;0.40;0.40;;;17.40;99.90;;;;;;5066708;28;20058;-82
2022/09/08 03:25:52;;;;;;;0.40;0.40;;;17.50;99.90;;;;;;5066138;28;20055;-81
2022/09/08 03:28:24;;;;;;;0.40;0.40;;;17.50;99.90;;;;;;5064478;28;20485;-81
2022/09/08 03:30:50;;;;;;;0.30;0.30;;;17.50;99.90;;;;;;5067772;28;20723;-81
2022/09/08 03:33:15;;;;;;;0.40;0.40;;;17.50;99.90;;;;;;5082103;28;20156;-81
2022/09/08 03:35:42;;;;;;;0.40;0.40;;;17.40;99.90;;;;;;5062572;28;20134;-82
2022/09/08 03:38:07;;;;;;;0.40;0.40;;;17.40;99.90;;;;;;5060219;28;20424;-83
2022/09/08 03:40:34;;;;;;;0.40;0.40;;;17.40;99.90;;;;;;5061751;28;20050;-82
2022/09/08 03:43:00;;;;;;;0.40;0.40;;;17.40;99.90;;;;;;5063251;28;20095;-82
2022/09/08 03:45:28;;;;;;;0.50;0.50;;;17.30;99.90;;;;;;5063735;28;20044;-82
2022/09/08 03:47:53;;;;;;;0.40;0.40;;;17.30;99.90;;;;;;5064942;28;20442;-82
2022/09/08 03:50:19;;;;;;;0.45;0.45;;;17.40;99.90;;;;;;5044429;28;20040;-81
2022/09/08 03:52:45;;;;;;;0.40;0.40;;;17.30;99.90;;;;;;5061791;28;20134;-81
2022/09/08 03:55:11;;;;;;;0.40;0.40;;;17.30;99.90;;;;;;5061204;28;20043;-82
2022/09/08 03:57:38;;;;;;;0.40;0.40;;;17.30;99.90;;;;;;5061110;28;20052;-82
2022/09/08 04:00:08;;;;;;;0.40;0.40;;;17.30;99.90;;;;;;5081493;28;20553;-83
2022/09/08 04:02:34;;;;;;;0.40;0.40;;;17.30;99.90;;;;;;5062308;28;20047;-81
2022/09/08 04:04:59;;;;;;;0.40;0.40;;;17.30;99.90;;;;;;5043806;28;20719;-81
2022/09/08 04:07:29;;;;;;;0.40;0.40;;;17.40;99.90;;;;;;5059441;28;20055;-81
2022/09/08 04:09:56;;;;;;;0.40;0.40;;;17.40;99.90;;;;;;5045681;28;20075;-81
2022/09/08 04:12:24;;;;;;;0.40;0.40;;;17.30;99.90;;;;;;5060406;28;20139;-81
2022/09/08 04:14:50;;;;;;;0.47;0.47;;;17.40;99.90;;;;;;5060883;28;20054;-82
2022/09/08 04:17:17;;;;;;;0.40;0.40;;;17.30;99.90;;;;;;5064281;28;20415;-81
2022/09/08 04:19:43;;;;;;;0.40;0.40;;;17.30;99.90;;;;;;5062784;28;20056;-82
2022/09/08 04:22:10;;;;;;;0.40;0.40;;;17.40;99.90;;;;;;5046143;28;20039;-81
2022/09/08 04:24:36;;;;;;;0.40;0.40;;;17.30;99.90;;;;;;5060860;28;20051;-81
2022/09/08 04:27:02;;;;;;;0.40;0.40;;;17.20;99.90;;;;;;5046030;28;20032;-81
2022/09/08 04:29:28;;;;;;;0.50;0.50;;;17.10;99.90;;;;;;5061346;28;20046;-82
2022/09/08 04:31:53;;;;;;;0.40;0.40;;;17.20;99.90;;;;;;5061983;28;20035;-81
2022/09/08 04:34:19;;;;;;;0.40;0.40;;;17.10;99.90;;;;;;5060452;28;20042;-81
2022/09/08 04:36:48;;;;;;;0.40;0.40;;;17.20;99.90;;;;;;5074720;28;20036;-82
2022/09/08 04:39:16;;;;;;;0.40;0.40;;;17.30;99.90;;;;;;5050034;28;20103;-81
2022/09/08 04:41:42;;;;;;;0.40;0.40;;;17.20;99.90;;;;;;5041213;28;20055;-81
2022/09/08 04:44:08;;;;;;;0.40;0.40;;;17.10;99.90;;;;;;5036136;28;20048;-82
2022/09/08 04:46:34;;;;;;;0.40;0.40;;;17.20;99.90;;;;;;5045149;28;20054;-81
2022/09/08 04:49:00;;;;;;;0.50;0.50;;;17.20;99.90;;;;;;5045671;28;20090;-81
2022/09/08 04:51:27;;;;;;;0.40;0.40;;;17.10;99.90;;;;;;5045944;28;20060;-81
2022/09/08 04:53:55;;;;;;;0.40;0.40;;;17.10;99.90;;;;;;5042281;28;20976;-82
2022/09/08 04:56:22;;;;;;;0.40;0.40;;;17.20;99.90;;;;;;5020160;28;20044;-81
2022/09/08 04:58:49;;;;;;;0.40;0.40;;;17.10;99.90;;;;;;5039547;28;20069;-81
2022/09/08 05:01:20;;;;;;;0.40;0.40;;;17.10;99.90;;;;;;5046397;28;20046;-81
2022/09/08 05:03:51;;;;;;;0.40;0.40;;;17.10;99.90;;;;;;5064509;28;20940;-81
2022/09/08 05:06:17;;;;;;;0.40;0.40;;;17.20;99.90;;;;;;5060271;28;20136;-81
2022/09/08 05:08:44;;;;;;;0.40;0.40;;;17.20;99.90;;;;;;5078537;28;20126;-80
2022/09/08 05:11:10;;;;;;;0.40;0.40;;;17.20;99.90;;;;;;5060222;28;20047;-80
2022/09/08 05:13:36;;;;;;;0.40;0.40;;;17.20;99.90;;;;;;5035981;28;20841;-82
2022/09/08 05:16:04;;;;;;;0.40;0.40;;;17.20;99.90;;;;;;5045529;28;20052;-81
2022/09/08 05:18:29;;;;;;;0.40;0.40;;;17.20;99.90;;;;;;5064433;28;20055;-81
2022/09/08 05:20:56;;;;;;;0.40;0.40;;;17.20;99.90;;;;;;5043395;28;20654;-82
2022/09/08 05:23:21;;;;;;;0.40;0.40;;;17.30;99.90;;;;;;5051841;28;20163;-82
2022/09/08 05:26:14;;;;;;;0.40;0.40;;;17.20;99.90;;;;;;5055134;28;20046;-81
2022/09/08 05:28:41;;;;;;;0.45;0.45;;;17.20;99.90;;;;;;5018369;28;20051;-81
2022/09/08 05:31:15;;;;;;;0.50;0.50;;;17.20;99.90;;;;;;5056236;28;20058;-83
2022/09/08 05:33:41;;;;;;;0.50;0.50;;;17.20;99.90;;;;;;5060989;28;20048;-82
2022/09/08 05:36:19;;;;;;;0.40;0.40;;;17.20;99.90;;;;;;5055480;28;20040;-81
2022/09/08 05:38:45;;;;;;;0.50;0.50;;;17.30;99.90;;;;;;5025592;28;20056;-82
2022/09/08 05:41:12;;;;;;;0.40;0.40;;;17.20;99.90;;;;;;5053687;28;20055;-81
2022/09/08 05:43:38;;;;;;;0.40;0.40;;;17.30;99.90;;;;;;5059316;28;20147;-81
2022/09/08 05:46:05;;;;;;;0.40;0.40;;;17.30;99.90;;;;;;5057521;28;20075;-80
2022/09/08 05:48:32;;;;;;;0.40;0.40;;;17.20;99.90;;;;;;5072465;28;20180;-81
2022/09/08 05:50:58;;;;;;;0.40;0.40;;;17.30;99.90;;;;;;5039843;28;20047;-80
2022/09/08 05:53:24;;;;;;;0.40;0.40;;;17.20;99.90;;;;;;5036959;28;20055;-82
2022/09/08 05:55:56;;;;;;;0.40;0.40;;;17.20;99.90;;;;;;5040569;28;20850;-85
2022/09/08 05:58:22;;;;;;;0.40;0.40;;;17.10;99.90;;;;;;5058858;28;20036;-88
2022/09/08 06:00:54;;;;;;;0.40;0.40;;;17.10;99.90;;;;;;5043873;28;20105;-87
2022/09/08 06:03:20;;;;;;;0.40;0.40;;;17.10;99.90;;;;;;5065503;28;20294;-89
2022/09/08 06:05:45;;;;;;;0.40;0.40;;;17.00;99.90;;;;;;5047165;28;20043;-91
2022/09/08 06:08:11;;;;;;;0.40;0.40;;;17.00;99.90;;;;;;5027507;28;20536;-87
2022/09/08 06:10:37;;;;;;;0.40;0.40;;;17.00;99.90;;;;;;5036391;28;20403;-88
2022/09/08 06:13:03;;;;;;;0.40;0.40;;;16.90;99.90;;;;;;5041293;28;20044;-89
2022/09/08 06:15:29;;;;;;;0.40;0.40;;;17.00;99.90;;;;;;5026791;28;20042;-85
2022/09/08 06:17:56;;;;;;;0.40;0.40;;;16.90;99.90;;;;;;5052064;28;20135;-87
2022/09/08 06:20:23;;;;;;;0.40;0.40;;;16.90;99.90;;;;;;5051980;28;20044;-87
2022/09/08 06:22:48;;;;;;;0.40;0.40;;;16.90;99.90;;;;;;5052865;28;20051;-85
2022/09/08 06:25:14;;;;;;;0.40;0.40;;;16.90;99.90;;;;;;5050254;28;20046;-86
2022/09/08 06:28:03;;;;;;;0.40;0.40;;;17.10;99.90;;;;;;5036142;28;20038;-86
2022/09/08 06:30:29;;;;;;;0.50;0.50;;;17.00;99.90;;;;;;5080878;28;20039;-88
2022/09/08 06:33:02;;;;;;;0.50;0.50;;;17.10;99.90;;;;;;5037511;28;20085;-85
2022/09/08 06:35:35;;;;;;;0.40;0.40;;;17.00;99.90;;;;;;5073169;28;20044;-85
2022/09/08 06:38:47;;;;;;;0.40;0.40;;;17.10;99.90;;;;;;5053251;28;20055;-86
2022/09/08 06:41:18;;;;;;;0.40;0.40;;;17.20;99.90;;;;;;5065852;28;20054;-87
2022/09/08 06:43:58;;;;;;;0.40;0.40;;;17.00;99.90;;;;;;5071767;28;20048;-90
2022/09/08 06:46:32;;;;;;;0.40;0.40;;;17.00;99.90;;;;;;5056904;28;20109;-86
2022/09/08 06:48:58;;;;;;;;;;;17.00;99.90;;;;;;5070606;28;20124;-87
2022/09/08 06:51:58;;;;;;;0.40;0.40;;;17.10;99.90;;;;;;5065211;28;19976;-88
2022/09/08 06:54:53;;;;;;;0.40;0.40;;;17.10;99.90;;;;;;5072939;28;20834;-88
2022/09/08 06:57:44;;;;;;;0.40;0.40;;;17.30;99.90;;;;;;5087864;28;20696;-88
2022/09/08 07:00:20;;;;;;;0.40;0.40;;;17.20;99.90;;;;;;5052432;28;20159;-86
2022/09/08 07:03:07;;;;;;;0.40;0.40;;;17.20;99.90;;;;;;5055319;28;20061;-86
2022/09/08 07:05:57;;;;;;;0.43;0.43;;;17.20;99.90;;;;;;5052292;28;20050;-87
2022/09/08 07:08:36;;;;;;;0.50;0.50;;;17.30;99.90;;;;;;5067648;28;20036;-87
2022/09/08 07:11:19;;;;;;;0.40;0.40;;;17.20;99.90;;;;;;5067853;28;20892;-85
2022/09/08 07:14:06;;;;;;;0.40;0.40;;;17.20;99.90;;;;;;5069745;28;20108;-86
2022/09/08 07:17:07;;;;;;;0.40;0.40;;;17.30;99.90;;;;;;5067785;28;20072;-86
2022/09/08 07:19:39;;;;;;;0.40;0.40;;;17.20;99.90;;;;;;5002738;28;20085;-84
2022/09/08 07:22:24;;;;;;;0.40;0.40;;;17.30;99.90;;;;;;5068188;28;21101;-85
2022/09/08 07:24:53;;;;;;;0.50;0.50;;;17.40;99.90;;;;;;5067928;28;20051;-86
2022/09/08 07:27:19;;;;;;;0.40;0.40;;;17.40;99.90;;;;;;5062380;28;20078;-87
2022/09/08 07:29:58;;;;;;;0.40;0.40;;;17.40;99.90;;;;;;5055998;28;20687;-93
2022/09/08 07:32:34;;;;;;;0.40;0.40;;;17.30;99.90;;;;;;5061440;28;20531;-92
2022/09/08 07:35:15;;;;;;;0.40;0.40;;;17.30;99.90;;;;;;5057090;28;20300;-91
2022/09/08 07:37:51;;;;;;;0.47;0.47;;;17.30;99.90;;;;;;5059298;28;20446;-91
2022/09/08 07:40:42;;;;;;;0.40;0.40;;;17.50;99.90;;;;;;5062991;28;20069;-94
2022/09/08 07:43:10;;;;;;;0.50;0.50;;;17.50;99.90;;;;;;5049200;28;20536;-92
2022/09/08 07:46:09;;;;;;;0.40;0.40;;;17.50;99.90;;;;;;5074037;28;20939;-92
2022/09/08 07:49:01;;;;;;;0.40;0.40;;;17.50;99.90;;;;;;5055443;28;20044;-91
2022/09/08 07:51:36;;;;;;;0.40;0.40;;;17.50;99.90;;;;;;5070549;28;20043;-89
2022/09/08 07:54:18;;;;;;;0.43;0.43;;;17.40;99.90;;;;;;5057884;28;20059;-92
2022/09/08 07:57:12;;;;;;;0.40;0.40;;;17.40;99.90;;;;;;5056192;28;20049;-88
2022/09/08 08:00:11;;;;;;;0.50;0.50;;;17.50;99.90;;;;;;5063244;28;20672;-88
2022/09/08 08:02:44;;;;;;;0.40;0.40;;;17.50;99.90;;;;;;5042645;28;20586;-84
2022/09/08 08:05:27;;;;;;;0.45;0.45;;;17.50;99.90;;;;;;5031432;28;20048;-85
2022/09/08 08:08:10;;;;;;;0.40;0.40;;;17.40;99.90;;;;;;5038809;28;20040;-86
2022/09/08 08:11:07;;;;;;;0.40;0.40;;;17.40;99.90;;;;;;5051376;28;20055;-84
2022/09/08 08:13:51;;;;;;;0.40;0.40;;;17.40;99.90;;;;;;5067170;28;20051;-82
2022/09/08 08:16:43;;;;;;;0.50;0.50;;;17.50;99.90;;;;;;5068012;28;20044;-82
2022/09/08 08:19:18;;;;;;;0.50;0.50;;;17.50;99.90;;;;;;5056873;28;20136;-84
2022/09/08 08:21:50;;;;;;;0.40;0.40;;;17.50;99.90;;;;;;5067472;28;20048;-83
2022/09/08 08:24:55;;;;;;;0.40;0.40;;;17.50;99.90;;;;;;5067215;28;20123;-82
2022/09/08 08:27:38;;;;;;;0.40;0.40;;;17.50;99.90;;;;;;5061078;28;20492;-84
2022/09/08 08:30:21;;;;;;;0.50;0.50;;;17.40;99.90;;;;;;5067036;28;20047;-84
2022/09/08 08:33:07;;;;;;;0.40;0.40;;;17.50;99.90;;;;;;5081913;28;20454;-85
2022/09/08 08:35:50;;;;;;;0.40;0.40;;;17.60;99.90;;;;;;5052923;28;20059;-87
2022/09/08 08:38:45;;;;;;;0.40;0.40;;;17.60;99.90;;;;;;5065148;28;20569;-86
2022/09/08 08:41:31;;;;;;;0.50;0.50;;;17.60;99.90;;;;;;5060723;28;20058;-85
2022/09/08 08:44:23;;;;;;;0.40;0.40;;;17.50;99.90;;;;;;5049317;28;20039;-86
2022/09/08 08:47:17;;;;;;;0.47;0.47;;;17.60;99.90;;;;;;5028135;28;20059;-86
2022/09/08 08:50:02;;;;;;;0.40;0.40;;;17.60;99.90;;;;;;5050637;28;20380;-84
2022/09/08 08:53:05;;;;;;;0.40;0.40;;;17.60;99.90;;;;;;5065886;28;20113;-85
2022/09/08 08:55:56;;;;;;;0.40;0.40;;;17.60;99.90;;;;;;5067340;28;20043;-85
2022/09/08 08:58:52;;;;;;;0.47;0.47;;;17.60;99.90;;;;;;5066127;28;20043;-84
2022/09/08 09:01:55;;;;;;;0.40;0.40;;;17.70;99.90;;;;;;5067267;28;20044;-85
2022/09/08 09:04:38;;;;;;;0.50;0.50;;;17.70;99.90;;;;;;5050708;28;20486;-84
2022/09/08 09:07:40;;;;;;;0.40;0.40;;;17.60;99.90;;;;;;5066459;28;20039;-87
2022/09/08 09:10:43;;;;;;;0.50;0.50;;;17.70;99.90;;;;;;5067908;28;20047;-87
2022/09/08 09:13:47;;;;;;;0.50;0.50;;;17.80;99.90;;;;;;5056987;28;20075;-88
2022/09/08 09:16:40;;;;;;;0.50;0.50;;;17.70;99.90;;;;;;5068916;28;20685;-87
2022/09/08 09:19:34;;;;;;;0.40;0.40;;;17.70;99.90;;;;;;5050217;28;20784;-86
2022/09/08 09:22:02;;;;;;;0.50;0.50;;;17.60;99.90;;;;;;5055419;28;20532;-86
2022/09/08 09:24:56;;;;;;;0.40;0.40;;;17.70;99.90;;;;;;5055561;28;20505;-86
2022/09/08 09:28:01;;;;;;;0.40;0.40;;;17.70;99.90;;;;;;5059981;28;20174;-88
2022/09/08 09:30:43;;;;;;;0.50;0.50;;;17.80;99.90;;;;;;5073064;28;20058;-88
2022/09/08 09:33:11;;;;;;;0.40;0.40;;;17.60;99.90;;;;;;5050599;28;20500;-89
2022/09/08 09:35:56;;;;;;;0.40;0.40;;;17.70;99.90;;;;;;5056957;28;20653;-92
2022/09/08 09:38:40;;;;;;;0.40;0.40;;;17.70;99.90;;;;;;5062501;28;20040;-90
2022/09/08 09:41:36;;;;;;;0.40;0.40;;;17.60;99.90;;;;;;5074355;28;20061;-89
2022/09/08 09:44:29;;;;;;;0.47;0.47;;;17.70;99.90;;;;;;5063118;28;20821;-92
2022/09/08 09:47:13;;;;;;;0.40;0.40;;;17.70;99.90;;;;;;5063041;28;20499;-89
2022/09/08 09:50:01;;;;;;;0.40;0.40;;;17.60;99.90;;;;;;5058972;28;20293;-89
2022/09/08 09:52:29;;;;;;;0.47;0.47;;;17.70;99.90;;;;;;5060660;28;20047;-90
2022/09/08 09:55:14;;;;;;;0.40;0.40;;;17.60;99.90;;;;;;5077141;28;20096;-94
2022/09/08 09:58:27;;;;;;;0.40;0.40;;;17.70;99.90;;;;;;5060659;28;20043;-90
2022/09/08 10:01:20;;;;;;;0.40;0.40;;;17.70;99.90;;;;;;5061189;28;20476;-92
2022/09/08 10:04:25;;;;;;;0.40;0.40;;;17.60;99.90;;;;;;5046985;28;20058;-94
2022/09/08 10:07:18;;;;;;;0.40;0.40;;;17.60;99.90;;;;;;5069093;28;20285;-88
2022/09/08 10:10:18;;;;;;;0.40;0.40;;;17.50;99.90;;;;;;5056055;28;20035;-91
2022/09/08 10:12:47;;;;;;;0.40;0.40;;;17.50;99.90;;;;;;5052937;28;20056;-89
2022/09/08 10:15:40;;;;;;;0.47;0.47;;;17.50;99.90;;;;;;5075300;28;20051;-92
2022/09/08 10:18:37;;;;;;;0.40;0.40;;;17.50;99.90;;;;;;5049527;28;20059;-89
2022/09/08 10:21:24;;;;;;;0.40;0.40;;;17.50;99.90;;;;;;5068592;28;20118;-90
2022/09/08 10:24:18;;;;;;;0.40;0.40;;;17.50;99.90;;;;;;5057339;28;20044;-87
2022/09/08 10:27:05;;;;;;;0.40;0.40;;;17.50;99.90;;;;;;5074615;28;20039;-90
2022/09/08 10:29:38;;;;;;;0.40;0.40;;;17.40;99.90;;;;;;5053704;28;20047;-93
2022/09/08 10:32:10;;;;;;;0.40;0.40;;;17.40;99.90;;;;;;5059555;28;20048;-88
2022/09/08 10:34:54;;;;;;;0.40;0.40;;;17.50;99.90;;;;;;5072072;28;20400;-91
2022/09/08 10:37:58;;;;;;;0.40;0.40;;;17.40;99.90;;;;;;5057895;28;20096;-88
2022/09/08 10:40:45;;;;;;;0.40;0.40;;;17.30;99.90;;;;;;5057803;28;20463;-89
2022/09/08 10:43:30;;;;;;;0.40;0.40;;;17.30;99.90;;;;;;5051873;28;20066;-89
2022/09/08 10:46:18;;;;;;;0.40;0.40;;;17.30;99.90;;;;;;5053248;28;20075;-84
2022/09/08 10:49:01;;;;;;;0.40;0.40;;;17.40;99.90;;;;;;5067191;28;20051;-86
2022/09/08 10:51:36;;;;;;;0.40;0.40;;;17.30;99.90;;;;;;5067316;28;20294;-87
2022/09/08 10:54:20;;;;;;;0.40;0.40;;;17.50;99.90;;;;;;5066041;28;20173;-87
2022/09/08 10:56:47;;;;;;;;;;;17.40;99.90;;;;;;5040107;28;20074;-86
2022/09/08 10:59:57;;;;;;;0.40;0.40;;;17.40;99.90;;;;;;5060044;28;20021;-88
2022/09/08 11:02:30;;;;;;;0.40;0.40;;;17.50;99.90;;;;;;5065894;28;20039;-87
2022/09/08 11:05:26;;;;;;;0.40;0.40;;;17.50;99.90;;;;;;5068491;28;20086;-87
2022/09/08 11:08:07;;;;;;;0.40;0.40;;;17.60;99.90;;;;;;5054181;28;20044;-88
2022/09/08 11:11:07;;;;;;;0.43;0.43;;;17.70;99.90;;;;;;5045525;28;20090;-86
2022/09/08 11:13:40;;;;;;;0.40;0.40;;;17.60;99.90;;;;;;5040399;28;20047;-85
2022/09/08 11:16:28;;;;;;;0.40;0.40;;;17.70;99.90;;;;;;5069513;28;20047;-90
2022/09/08 11:19:32;;;;;;;0.40;0.40;;;17.60;99.90;;;;;;5051329;28;20044;-88
2022/09/08 11:22:38;;;;;;;0.40;0.40;;;17.60;99.90;;;;;;5067992;28;20066;-89
2022/09/08 11:25:26;;;;;;;0.40;0.40;;;17.60;99.90;;;;;;5053905;28;20616;-90
2022/09/08 11:27:53;;;;;;;0.40;0.40;;;17.60;99.90;;;;;;5049416;28;20035;-84
2022/09/08 11:30:42;;;;;;;0.50;0.50;;;17.70;99.90;;;;;;5049327;28;20916;-88
2022/09/08 11:33:39;;;;;;;0.40;0.40;;;17.70;99.90;;;;;;5051869;28;20051;-89
2022/09/08 11:36:36;;;;;;;0.40;0.40;;;17.80;99.90;;;;;;5067164;28;20050;-90
2022/09/08 11:39:35;;;;;;;0.40;0.40;;;17.80;99.90;;;;;;5085153;28;20062;-90
2022/09/08 11:42:29;;;;;;;0.40;0.40;;;17.80;99.90;;;;;;5058508;28;20050;-88
2022/09/08 11:45:19;;;;;;;0.40;0.40;;;17.80;99.90;;;;;;5053015;28;20048;-93
2022/09/08 11:48:11;;;;;;;0.40;0.40;;;17.70;99.90;;;;;;5057540;28;20199;-92
2022/09/08 11:50:54;;;;;;;0.40;0.40;;;17.70;99.90;;;;;;5052640;28;20169;-90
2022/09/08 11:54:08;;;;;;;0.40;0.40;;;17.70;99.90;;;;;;5069037;28;20039;-90
2022/09/08 11:57:11;;;;;;;0.40;0.40;;;17.80;99.90;;;;;;5042731;28;20055;-91
2022/09/08 11:59:50;;;;;;;0.40;0.40;;;17.80;99.90;;;;;;5060027;28;20047;-92
2022/09/08 12:02:25;;;;;;;0.40;0.40;;;17.90;99.90;;;;;;5069330;28;20452;-94
2022/09/08 12:04:56;;;;;;;0.40;0.40;;;17.90;99.90;;;;;;5060106;28;20093;-89
2022/09/08 12:08:00;;;;;;;0.40;0.40;;;17.90;99.90;;;;;;5056971;28;20911;-87
2022/09/08 12:11:11;;;;;;;0.40;0.40;;;18.00;99.90;;;;;;5054270;28;20036;-88
2022/09/08 12:14:01;;;;;;;0.40;0.40;;;18.10;99.90;;;;;;5070054;28;20052;-88
2022/09/08 12:16:53;;;;;;;0.40;0.40;;;18.20;99.90;;;;;;5054515;28;20047;-86
2022/09/08 12:19:41;;;;;;;0.40;0.40;;;18.30;99.90;;;;;;5047180;28;20040;-88
2022/09/08 12:22:47;;;;;;;0.40;0.40;;;18.50;99.90;;;;;;5058276;28;20050;-92
2022/09/08 12:25:55;;;;;;;0.40;0.40;;;18.50;99.90;;;;;;5058870;28;20036;-92
2022/09/08 12:28:48;;;;;;;0.40;0.40;;;18.60;99.90;;;;;;5048417;28;20043;-87
2022/09/08 12:31:38;;;;;;;0.40;0.40;;;18.80;99.90;;;;;;5067640;28;20047;-86
2022/09/08 12:35:04;;;;;;;0.40;0.40;;;18.90;99.90;;;;;;5064200;28;20058;-89
2022/09/08 12:37:49;;;;;;;0.40;0.40;;;19.00;99.90;;;;;;5021187;28;20064;-86
2022/09/08 12:40:32;;;;;;;0.40;0.40;;;19.20;99.90;;;;;;5060458;28;20048;-85
2022/09/08 12:43:22;;;;;;;0.38;0.38;;;19.20;99.90;;;;;;5064283;28;20060;-84
2022/09/08 12:46:19;;;;;;;0.40;0.40;;;19.30;99.90;;;;;;5064844;28;20118;-87
2022/09/08 12:48:48;;;;;;;0.40;0.40;;;19.40;99.90;;;;;;5066434;28;20054;-85
2022/09/08 12:51:34;;;;;;;0.40;0.40;;;19.50;99.90;;;;;;5068320;28;20040;-85
2022/09/08 12:54:24;;;;;;;0.40;0.40;;;19.60;99.90;;;;;;5068419;28;20051;-86
2022/09/08 12:56:50;;;;;;;0.40;0.40;;;19.70;99.90;;;;;;5051552;28;20664;-85
2022/09/08 12:59:34;;;;;;;0.40;0.40;;;19.70;99.90;;;;;;5050115;28;20055;-83
2022/09/08 13:02:14;;;;;;;0.40;0.40;;;19.70;99.90;;;;;;5066952;28;20164;-85
2022/09/08 13:05:15;;;;;;;0.40;0.40;;;19.90;99.90;;;;;;5067279;28;20043;-86
2022/09/08 13:07:57;;;;;;;0.40;0.40;;;19.90;99.90;;;;;;5066051;28;20712;-83
2022/09/08 13:10:32;;;;;;;0.40;0.40;;;19.90;99.90;;;;;;5065002;28;20058;-84
2022/09/08 13:13:32;;;;;;;0.30;0.30;;;20.10;99.90;;;;;;5067266;28;20695;-84
2022/09/08 13:16:04;;;;;;;0.40;0.40;;;20.20;99.90;;;;;;5065882;28;20051;-82
2022/09/08 13:18:36;;;;;;;0.30;0.30;;;20.40;99.90;;;;;;5065482;28;20035;-83
2022/09/08 13:21:41;;;;;;;0.40;0.40;;;20.30;99.90;;;;;;5084017;28;20419;-82
2022/09/08 13:24:39;;;;;;;0.40;0.40;;;20.40;99.90;;;;;;5055647;28;20056;-82
2022/09/08 13:27:31;;;;;;;0.35;0.35;;;20.50;99.90;;;;;;5066612;28;20054;-82
2022/09/08 13:30:33;;;;;;;0.30;0.30;;;20.40;99.90;;;;;;5063968;28;20043;-83
2022/09/08 13:33:21;;;;;;;0.40;0.40;;;20.30;99.90;;;;;;5066016;28;20059;-82
2022/09/08 13:36:04;;;;;;;0.30;0.30;;;20.60;99.90;;;;;;5065834;28;20474;-83
2022/09/08 13:38:44;;;;;;;0.30;0.30;;;20.60;99.90;;;;;;5047457;28;20120;-82
2022/09/08 13:41:37;;;;;;;0.30;0.30;;;20.70;99.90;;;;;;5072660;28;20073;-83
2022/09/08 13:44:21;;;;;;;0.40;0.40;;;20.50;99.90;;;;;;5067049;28;20055;-82
2022/09/08 13:47:05;;;;;;;;;;;20.60;99.90;;;;;;5064976;28;20059;-81
2022/09/08 13:49:37;;;;;;;0.30;0.30;;;20.70;99.90;;;;;;5080086;28;19988;-81